sensor_id;sensor_type;location;lat;lon;timestamp;temperature;humidity
20459;DHT22;10388;52.314;7.938;2022-12-20T00:01:31;6.70;99.90
20459;DHT22;10388;52.314;7.938;2022-12-20T00:04:03;6.80;99.90
20459;DHT22;10388;52.314;7.938;2022-12-20T00:06:37;6.70;99.90
20459;DHT22;10388;52.314;7.938;2022-12-20T00:09:10;6.70;99.90
20459;DHT22;10388;52.314;7.938;2022-12-20T00:11:41;6.70;99.90
20459;DHT22;10388;52.314;7.938;2022-12-20T00:14:11;6.70;99.90
20459;DHT22;10388;52.314;7.938;2022-12-20T00:16:42;6.70;99.90
20459;DHT22;10388;52.314;7.938;2022-12-20T00:19:13;6.80;99.90
20459;DHT22;10388;52.314;7.938;2022-12-20T00:21:43;6.80;99.90
20459;DHT22;10388;52.314;7.938;2022-12-20T00:24:14;6.80;99.90
20459;DHT22;10388;52.314;7.938;2022-12-20T00:26:44;6.90;99.90
20459;DHT22;10388;52.314;7.938;2022-12-20T00:29:15;6.90;99.90
20459;DHT22;10388;52.314;7.938;2022-12-20T00:31:46;6.90;99.90
20459;DHT22;10388;52.314;7.938;2022-12-20T00:34:16;7.00;99.90
20459;DHT22;10388;52.314;7.938;2022-12-20T00:36:47;7.00;99.90
20459;DHT22;10388;52.314;7.938;2022-12-20T00:39:17;7.00;99.90
20459;DHT22;10388;52.314;7.938;2022-12-20T00:41:48;7.00;99.90
20459;DHT22;10388;52.314;7.938;2022-12-20T00:44:18;7.00;99.90
20459;DHT22;10388;52.314;7.938;2022-12-20T00:46:49;7.00;99.90
20459;DHT22;10388;52.314;7.938;2022-12-20T00:49:19;7.10;99.90
20459;DHT22;10388;52.314;7.938;2022-12-20T00:51:50;7.10;99.90
20459;DHT22;10388;52.314;7.938;2022-12-20T00:54:20;7.10;99.90
20459;DHT22;10388;52.314;7.938;2022-12-20T00:56:51;7.10;99.90
20459;DHT22;10388;52.314;7.938;2022-12-20T00:59:21;7.30;99.90
20459;DHT22;10388;52.314;7.938;2022-12-20T01:56:07;7.40;99.90
20459;DHT22;10388;52.314;7.938;2022-12-20T01:59:14;7.40;99.90
20459;DHT22;10388;52.314;7.938;2022-12-20T02:06:11;7.40;99.90
20459;DHT22;10388;52.314;7.938;2022-12-20T02:09:02;7.50;99.90
20459;DHT22;10388;52.314;7.938;2022-12-20T02:18:30;7.60;99.90
20459;DHT22;10388;52.314;7.938;2022-12-20T02:21:45;7.60;99.90
20459;DHT22;10388;52.314;7.938;2022-12-20T02:25:08;7.60;99.90
20459;DHT22;10388;52.314;7.938;2022-12-20T02:30:55;7.70;99.90
20459;DHT22;10388;52.314;7.938;2022-12-20T02:33:38;7.70;99.90
20459;DHT22;10388;52.314;7.938;2022-12-20T02:36:14;7.80;99.90
20459;DHT22;10388;52.314;7.938;2022-12-20T02:42:06;7.70;99.90
20459;DHT22;10388;52.314;7.938;2022-12-20T02:45:00;7.70;99.90
20459;DHT22;10388;52.314;7.938;2022-12-20T02:48:01;7.80;99.90
20459;DHT22;10388;52.314;7.938;2022-12-20T02:51:01;7.80;99.90
20459;DHT22;10388;52.314;7.938;2022-12-20T02:53:38;7.80;99.90
20459;DHT22;10388;52.314;7.938;2022-12-20T02:56:20;7.80;99.90
20459;DHT22;10388;52.314;7.938;2022-12-20T02:59:21;7.80;99.90
20459;DHT22;10388;52.314;7.938;2022-12-20T03:02:08;7.80;99.90
20459;DHT22;10388;52.314;7.938;2022-12-20T03:04:50;7.90;99.90
20459;DHT22;10388;52.314;7.938;2022-12-20T03:07:41;7.90;99.90
20459;DHT22;10388;52.314;7.938;2022-12-20T03:10:21;7.90;99.90
20459;DHT22;10388;52.314;7.938;2022-12-20T03:13:01;7.90;99.90
20459;DHT22;10388;52.314;7.938;2022-12-20T03:15:31;8.00;99.90
20459;DHT22;10388;52.314;7.938;2022-12-20T03:18:02;8.10;99.90
20459;DHT22;10388;52.314;7.938;2022-12-20T03:20:33;8.10;99.90
20459;DHT22;10388;52.314;7.938;2022-12-20T03:23:04;8.10;99.90
20459;DHT22;10388;52.314;7.938;2022-12-20T03:25:35;8.20;99.90
20459;DHT22;10388;52.314;7.938;2022-12-20T03:28:05;8.10;99.90
20459;DHT22;10388;52.314;7.938;2022-12-20T03:30:36;8.10;99.90
20459;DHT22;10388;52.314;7.938;2022-12-20T03:33:06;8.10;99.90
20459;DHT22;10388;52.314;7.938;2022-12-20T03:50:49;8.00;99.90
20459;DHT22;10388;52.314;7.938;2022-12-20T03:53:20;8.00;99.90
20459;DHT22;10388;52.314;7.938;2022-12-20T03:55:50;8.00;99.90
20459;DHT22;10388;52.314;7.938;2022-12-20T03:58:21;8.00;99.90
20459;DHT22;10388;52.314;7.938;2022-12-20T04:00:51;8.00;99.90
20459;DHT22;10388;52.314;7.938;2022-12-20T04:03:22;8.00;99.90
20459;DHT22;10388;52.314;7.938;2022-12-20T04:05:52;8.00;99.90
20459;DHT22;10388;52.314;7.938;2022-12-20T04:08:23;8.00;99.90
20459;DHT22;10388;52.314;7.938;2022-12-20T04:10:54;8.00;99.90
20459;DHT22;10388;52.314;7.938;2022-12-20T04:13:44;8.00;99.90
20459;DHT22;10388;52.314;7.938;2022-12-20T04:16:17;8.10;99.90
20459;DHT22;10388;52.314;7.938;2022-12-20T04:18:48;8.10;99.90
20459;DHT22;10388;52.314;7.938;2022-12-20T04:21:24;8.00;99.90
20459;DHT22;10388;52.314;7.938;2022-12-20T04:23:55;8.10;99.90
20459;DHT22;10388;52.314;7.938;2022-12-20T04:26:26;8.10;99.90
20459;DHT22;10388;52.314;7.938;2022-12-20T04:28:57;8.10;99.90
20459;DHT22;10388;52.314;7.938;2022-12-20T04:31:27;8.10;99.90
20459;DHT22;10388;52.314;7.938;2022-12-20T04:33:58;8.10;99.90
20459;DHT22;10388;52.314;7.938;2022-12-20T04:36:28;8.10;99.90
20459;DHT22;10388;52.314;7.938;2022-12-20T04:38:59;8.10;99.90
20459;DHT22;10388;52.314;7.938;2022-12-20T04:41:30;8.20;99.90
20459;DHT22;10388;52.314;7.938;2022-12-20T04:44:00;8.20;99.90
20459;DHT22;10388;52.314;7.938;2022-12-20T04:46:31;8.10;99.90
20459;DHT22;10388;52.314;7.938;2022-12-20T04:49:02;8.10;99.90
20459;DHT22;10388;52.314;7.938;2022-12-20T04:51:33;8.10;99.90
20459;DHT22;10388;52.314;7.938;2022-12-20T04:54:04;8.20;99.90
20459;DHT22;10388;52.314;7.938;2022-12-20T04:56:34;8.20;99.90
20459;DHT22;10388;52.314;7.938;2022-12-20T04:59:05;8.20;99.90
20459;DHT22;10388;52.314;7.938;2022-12-20T05:01:35;8.20;99.90
20459;DHT22;10388;52.314;7.938;2022-12-20T05:04:06;8.20;99.90
20459;DHT22;10388;52.314;7.938;2022-12-20T05:06:37;8.20;99.90
20459;DHT22;10388;52.314;7.938;2022-12-20T05:09:07;8.20;99.90
20459;DHT22;10388;52.314;7.938;2022-12-20T05:11:38;8.30;99.90
20459;DHT22;10388;52.314;7.938;2022-12-20T05:14:08;8.30;99.90
20459;DHT22;10388;52.314;7.938;2022-12-20T05:16:39;8.30;99.90
20459;DHT22;10388;52.314;7.938;2022-12-20T05:19:09;8.30;99.90
20459;DHT22;10388;52.314;7.938;2022-12-20T05:21:40;8.30;99.90
20459;DHT22;10388;52.314;7.938;2022-12-20T05:24:29;8.30;99.90
20459;DHT22;10388;52.314;7.938;2022-12-20T05:27:18;8.30;99.90
20459;DHT22;10388;52.314;7.938;2022-12-20T05:29:49;8.40;99.90
20459;DHT22;10388;52.314;7.938;2022-12-20T05:32:19;8.40;99.90
20459;DHT22;10388;52.314;7.938;2022-12-20T05:34:50;8.50;99.90
20459;DHT22;10388;52.314;7.938;2022-12-20T05:37:20;8.50;99.90
20459;DHT22;10388;52.314;7.938;2022-12-20T05:39:51;8.50;99.90
20459;DHT22;10388;52.314;7.938;2022-12-20T05:42:21;8.50;99.90
20459;DHT22;10388;52.314;7.938;2022-12-20T05:44:55;8.50;99.90
20459;DHT22;10388;52.314;7.938;2022-12-20T05:47:26;8.50;99.90
20459;DHT22;10388;52.314;7.938;2022-12-20T05:49:57;8.50;99.90
20459;DHT22;10388;52.314;7.938;2022-12-20T05:52:28;8.70;99.90
20459;DHT22;10388;52.314;7.938;2022-12-20T05:54:59;8.60;99.90
20459;DHT22;10388;52.314;7.938;2022-12-20T05:57:29;8.70;99.90
20459;DHT22;10388;52.314;7.938;2022-12-20T06:00:02;8.70;99.90
20459;DHT22;10388;52.314;7.938;2022-12-20T06:02:33;8.70;99.90
20459;DHT22;10388;52.314;7.938;2022-12-20T06:05:04;8.80;99.90
20459;DHT22;10388;52.314;7.938;2022-12-20T06:07:35;8.80;99.90
20459;DHT22;10388;52.314;7.938;2022-12-20T06:10:06;8.70;99.90
20459;DHT22;10388;52.314;7.938;2022-12-20T06:12:37;8.60;99.90
20459;DHT22;10388;52.314;7.938;2022-12-20T06:15:08;8.70;99.90
20459;DHT22;10388;52.314;7.938;2022-12-20T06:17:38;8.70;99.90
20459;DHT22;10388;52.314;7.938;2022-12-20T06:20:09;8.70;99.90
20459;DHT22;10388;52.314;7.938;2022-12-20T06:22:41;8.70;99.90
20459;DHT22;10388;52.314;7.938;2022-12-20T06:25:11;8.70;99.90
20459;DHT22;10388;52.314;7.938;2022-12-20T06:27:44;8.70;99.90
20459;DHT22;10388;52.314;7.938;2022-12-20T06:30:17;8.60;99.90
20459;DHT22;10388;52.314;7.938;2022-12-20T06:32:48;8.60;99.90
20459;DHT22;10388;52.314;7.938;2022-12-20T06:35:19;8.60;99.90
20459;DHT22;10388;52.314;7.938;2022-12-20T06:37:49;8.60;99.90
20459;DHT22;10388;52.314;7.938;2022-12-20T06:40:20;8.70;99.90
20459;DHT22;10388;52.314;7.938;2022-12-20T06:42:51;8.70;99.90
20459;DHT22;10388;52.314;7.938;2022-12-20T06:45:21;8.60;99.90
20459;DHT22;10388;52.314;7.938;2022-12-20T06:47:52;8.60;99.90
20459;DHT22;10388;52.314;7.938;2022-12-20T06:50:23;8.60;99.90
20459;DHT22;10388;52.314;7.938;2022-12-20T06:52:54;8.60;99.90
20459;DHT22;10388;52.314;7.938;2022-12-20T06:55:24;8.50;99.90
20459;DHT22;10388;52.314;7.938;2022-12-20T06:57:55;8.60;99.90
20459;DHT22;10388;52.314;7.938;2022-12-20T07:00:26;8.60;99.90
20459;DHT22;10388;52.314;7.938;2022-12-20T07:02:56;8.60;99.90
20459;DHT22;10388;52.314;7.938;2022-12-20T07:05:27;8.60;99.90
20459;DHT22;10388;52.314;7.938;2022-12-20T07:07:57;8.70;99.90
20459;DHT22;10388;52.314;7.938;2022-12-20T07:10:28;8.70;99.90
20459;DHT22;10388;52.314;7.938;2022-12-20T07:12:59;8.70;99.90
20459;DHT22;10388;52.314;7.938;2022-12-20T07:15:29;8.70;99.90
20459;DHT22;10388;52.314;7.938;2022-12-20T07:18:00;8.70;99.90
20459;DHT22;10388;52.314;7.938;2022-12-20T07:20:31;8.70;99.90
20459;DHT22;10388;52.314;7.938;2022-12-20T07:23:02;8.70;99.90
20459;DHT22;10388;52.314;7.938;2022-12-20T07:25:32;8.70;99.90
20459;DHT22;10388;52.314;7.938;2022-12-20T07:28:03;8.70;99.90
20459;DHT22;10388;52.314;7.938;2022-12-20T07:30:33;8.70;99.90
20459;DHT22;10388;52.314;7.938;2022-12-20T07:33:04;8.70;99.90
20459;DHT22;10388;52.314;7.938;2022-12-20T07:35:34;8.70;99.90
20459;DHT22;10388;52.314;7.938;2022-12-20T07:38:05;8.80;99.90
20459;DHT22;10388;52.314;7.938;2022-12-20T07:40:35;8.70;99.90
20459;DHT22;10388;52.314;7.938;2022-12-20T07:43:09;8.80;99.90
20459;DHT22;10388;52.314;7.938;2022-12-20T07:45:39;8.80;99.90
20459;DHT22;10388;52.314;7.938;2022-12-20T07:48:10;8.70;99.90
20459;DHT22;10388;52.314;7.938;2022-12-20T07:50:40;8.80;99.90
20459;DHT22;10388;52.314;7.938;2022-12-20T07:53:11;8.70;99.90
20459;DHT22;10388;52.314;7.938;2022-12-20T07:55:42;8.70;99.90
20459;DHT22;10388;52.314;7.938;2022-12-20T07:58:13;8.80;99.90
20459;DHT22;10388;52.314;7.938;2022-12-20T08:00:44;8.80;99.90
20459;DHT22;10388;52.314;7.938;2022-12-20T08:03:22;8.80;99.90
20459;DHT22;10388;52.314;7.938;2022-12-20T08:05:55;8.90;99.90
20459;DHT22;10388;52.314;7.938;2022-12-20T08:08:27;8.90;99.90
20459;DHT22;10388;52.314;7.938;2022-12-20T08:10:58;8.80;99.90
20459;DHT22;10388;52.314;7.938;2022-12-20T08:13:31;8.90;99.90
20459;DHT22;10388;52.314;7.938;2022-12-20T08:16:01;9.00;99.90
20459;DHT22;10388;52.314;7.938;2022-12-20T08:18:32;9.00;99.90
20459;DHT22;10388;52.314;7.938;2022-12-20T08:21:03;9.00;99.90
20459;DHT22;10388;52.314;7.938;2022-12-20T08:23:33;9.00;99.90
20459;DHT22;10388;52.314;7.938;2022-12-20T08:26:04;9.00;99.90
20459;DHT22;10388;52.314;7.938;2022-12-20T08:28:35;9.00;99.90
20459;DHT22;10388;52.314;7.938;2022-12-20T08:31:07;9.00;99.90
20459;DHT22;10388;52.314;7.938;2022-12-20T08:33:39;9.00;99.90
20459;DHT22;10388;52.314;7.938;2022-12-20T08:36:11;9.00;99.90
20459;DHT22;10388;52.314;7.938;2022-12-20T08:38:41;9.00;99.90
20459;DHT22;10388;52.314;7.938;2022-12-20T08:41:13;9.00;99.90
20459;DHT22;10388;52.314;7.938;2022-12-20T08:43:44;9.10;99.90
20459;DHT22;10388;52.314;7.938;2022-12-20T08:46:14;9.10;99.90
20459;DHT22;10388;52.314;7.938;2022-12-20T08:48:45;9.20;99.90
20459;DHT22;10388;52.314;7.938;2022-12-20T08:51:15;9.20;99.90
20459;DHT22;10388;52.314;7.938;2022-12-20T08:53:46;9.20;99.90
20459;DHT22;10388;52.314;7.938;2022-12-20T08:56:17;9.20;99.90
20459;DHT22;10388;52.314;7.938;2022-12-20T08:58:47;9.20;99.90
20459;DHT22;10388;52.314;7.938;2022-12-20T09:01:19;9.30;99.90
20459;DHT22;10388;52.314;7.938;2022-12-20T09:03:51;9.30;99.90
20459;DHT22;10388;52.314;7.938;2022-12-20T09:06:21;9.40;99.90
20459;DHT22;10388;52.314;7.938;2022-12-20T09:08:52;9.40;99.90
20459;DHT22;10388;52.314;7.938;2022-12-20T09:11:26;9.50;99.90
20459;DHT22;10388;52.314;7.938;2022-12-20T09:13:57;9.50;99.90
20459;DHT22;10388;52.314;7.938;2022-12-20T09:16:30;9.50;99.90
20459;DHT22;10388;52.314;7.938;2022-12-20T09:19:02;9.60;99.90
20459;DHT22;10388;52.314;7.938;2022-12-20T09:21:33;9.60;99.90
20459;DHT22;10388;52.314;7.938;2022-12-20T09:24:05;9.60;99.90
20459;DHT22;10388;52.314;7.938;2022-12-20T09:26:35;9.70;99.90
20459;DHT22;10388;52.314;7.938;2022-12-20T09:29:06;9.70;99.90
20459;DHT22;10388;52.314;7.938;2022-12-20T09:31:36;9.70;99.90
20459;DHT22;10388;52.314;7.938;2022-12-20T09:34:08;9.70;99.90
20459;DHT22;10388;52.314;7.938;2022-12-20T09:36:39;9.80;99.90
20459;DHT22;10388;52.314;7.938;2022-12-20T09:39:10;9.80;99.90
20459;DHT22;10388;52.314;7.938;2022-12-20T09:41:41;9.80;99.90
20459;DHT22;10388;52.314;7.938;2022-12-20T09:44:19;9.80;99.90
20459;DHT22;10388;52.314;7.938;2022-12-20T09:47:02;9.80;99.90
20459;DHT22;10388;52.314;7.938;2022-12-20T09:49:35;9.80;99.90
20459;DHT22;10388;52.314;7.938;2022-12-20T09:52:24;9.80;99.90
20459;DHT22;10388;52.314;7.938;2022-12-20T10:00:23;9.90;99.90
20459;DHT22;10388;52.314;7.938;2022-12-20T10:02:54;9.90;99.90
20459;DHT22;10388;52.314;7.938;2022-12-20T10:08:16;10.00;99.90
20459;DHT22;10388;52.314;7.938;2022-12-20T10:11:13;10.00;99.90
20459;DHT22;10388;52.314;7.938;2022-12-20T10:16:47;10.00;99.90
20459;DHT22;10388;52.314;7.938;2022-12-20T10:24:44;10.00;99.90
20459;DHT22;10388;52.314;7.938;2022-12-20T10:27:18;10.00;99.90
20459;DHT22;10388;52.314;7.938;2022-12-20T10:29:50;10.00;99.90
20459;DHT22;10388;52.314;7.938;2022-12-20T10:32:23;10.00;99.90
20459;DHT22;10388;52.314;7.938;2022-12-20T10:35:01;10.00;99.90
20459;DHT22;10388;52.314;7.938;2022-12-20T10:38:06;10.10;99.90
20459;DHT22;10388;52.314;7.938;2022-12-20T10:41:00;10.20;99.90
20459;DHT22;10388;52.314;7.938;2022-12-20T10:43:43;10.30;99.90
20459;DHT22;10388;52.314;7.938;2022-12-20T10:46:14;10.40;99.90
20459;DHT22;10388;52.314;7.938;2022-12-20T10:48:48;10.40;99.90
20459;DHT22;10388;52.314;7.938;2022-12-20T10:51:21;10.30;99.90
20459;DHT22;10388;52.314;7.938;2022-12-20T10:54:00;10.30;99.90
20459;DHT22;10388;52.314;7.938;2022-12-20T10:56:33;10.20;99.90
20459;DHT22;10388;52.314;7.938;2022-12-20T11:01:48;10.20;99.90
20459;DHT22;10388;52.314;7.938;2022-12-20T11:04:31;10.30;99.90
20459;DHT22;10388;52.314;7.938;2022-12-20T11:07:22;10.30;99.90
20459;DHT22;10388;52.314;7.938;2022-12-20T11:10:20;10.30;99.90
20459;DHT22;10388;52.314;7.938;2022-12-20T11:12:55;10.40;99.90
20459;DHT22;10388;52.314;7.938;2022-12-20T11:15:31;10.40;99.90
20459;DHT22;10388;52.314;7.938;2022-12-20T11:18:07;10.40;99.90
20459;DHT22;10388;52.314;7.938;2022-12-20T11:20:43;10.50;99.90
20459;DHT22;10388;52.314;7.938;2022-12-20T11:23:23;10.40;99.90
20459;DHT22;10388;52.314;7.938;2022-12-20T11:26:25;10.40;99.90
20459;DHT22;10388;52.314;7.938;2022-12-20T11:29:10;10.40;99.90
20459;DHT22;10388;52.314;7.938;2022-12-20T11:35:08;10.40;99.90
20459;DHT22;10388;52.314;7.938;2022-12-20T11:38:06;10.40;99.90
20459;DHT22;10388;52.314;7.938;2022-12-20T11:46:46;10.40;99.90
20459;DHT22;10388;52.314;7.938;2022-12-20T11:52:42;10.40;99.90
20459;DHT22;10388;52.314;7.938;2022-12-20T11:55:18;10.30;99.90
20459;DHT22;10388;52.314;7.938;2022-12-20T11:58:12;10.30;99.90
20459;DHT22;10388;52.314;7.938;2022-12-20T12:01:08;10.30;99.90
20459;DHT22;10388;52.314;7.938;2022-12-20T12:03:55;10.40;99.90
20459;DHT22;10388;52.314;7.938;2022-12-20T12:06:34;10.40;99.90
20459;DHT22;10388;52.314;7.938;2022-12-20T12:09:34;10.40;99.90
20459;DHT22;10388;52.314;7.938;2022-12-20T12:15:45;10.50;99.90
20459;DHT22;10388;52.314;7.938;2022-12-20T12:26:25;10.60;99.90
20459;DHT22;10388;52.314;7.938;2022-12-20T12:28:59;10.60;99.90
20459;DHT22;10388;52.314;7.938;2022-12-20T12:31:57;10.50;99.90
20459;DHT22;10388;52.314;7.938;2022-12-20T12:46:23;10.50;99.90
20459;DHT22;10388;52.314;7.938;2022-12-20T12:49:03;10.50;99.90
20459;DHT22;10388;52.314;7.938;2022-12-20T12:51:37;10.50;99.90
20459;DHT22;10388;52.314;7.938;2022-12-20T12:56:49;10.40;99.90
20459;DHT22;10388;52.314;7.938;2022-12-20T13:18:01;10.20;99.90
20459;DHT22;10388;52.314;7.938;2022-12-20T13:20:42;10.20;99.90
20459;DHT22;10388;52.314;7.938;2022-12-20T13:23:33;10.10;99.90
20459;DHT22;10388;52.314;7.938;2022-12-20T13:26:47;10.10;99.90
20459;DHT22;10388;52.314;7.938;2022-12-20T13:29:27;10.10;99.90
20459;DHT22;10388;52.314;7.938;2022-12-20T13:32:02;10.00;99.90
20459;DHT22;10388;52.314;7.938;2022-12-20T13:34:55;10.10;99.90
20459;DHT22;10388;52.314;7.938;2022-12-20T13:37:52;10.10;99.90
20459;DHT22;10388;52.314;7.938;2022-12-20T13:40:39;10.10;99.90
20459;DHT22;10388;52.314;7.938;2022-12-20T13:48:54;10.10;99.90
20459;DHT22;10388;52.314;7.938;2022-12-20T13:51:27;10.10;99.90
20459;DHT22;10388;52.314;7.938;2022-12-20T13:54:05;10.00;99.90
20459;DHT22;10388;52.314;7.938;2022-12-20T13:56:48;10.00;99.90
20459;DHT22;10388;52.314;7.938;2022-12-20T13:59:29;10.00;99.90
20459;DHT22;10388;52.314;7.938;2022-12-20T14:02:08;10.00;99.90
20459;DHT22;10388;52.314;7.938;2022-12-20T14:04:42;10.00;99.90
20459;DHT22;10388;52.314;7.938;2022-12-20T14:07:15;10.00;99.90
20459;DHT22;10388;52.314;7.938;2022-12-20T14:09:55;10.00;99.90
20459;DHT22;10388;52.314;7.938;2022-12-20T14:12:27;10.10;99.90
20459;DHT22;10388;52.314;7.938;2022-12-20T14:14:58;10.00;99.90
20459;DHT22;10388;52.314;7.938;2022-12-20T14:17:32;10.00;99.90
20459;DHT22;10388;52.314;7.938;2022-12-20T14:20:14;10.00;99.90
20459;DHT22;10388;52.314;7.938;2022-12-20T14:22:56;10.00;99.90
20459;DHT22;10388;52.314;7.938;2022-12-20T14:25:35;9.90;99.90
20459;DHT22;10388;52.314;7.938;2022-12-20T14:30:48;9.90;99.90
20459;DHT22;10388;52.314;7.938;2022-12-20T14:33:34;9.80;99.90
20459;DHT22;10388;52.314;7.938;2022-12-20T14:38:50;9.80;99.90
20459;DHT22;10388;52.314;7.938;2022-12-20T14:41:33;9.80;99.90
20459;DHT22;10388;52.314;7.938;2022-12-20T14:44:16;9.90;99.90
20459;DHT22;10388;52.314;7.938;2022-12-20T14:46:57;9.70;99.90
20459;DHT22;10388;52.314;7.938;2022-12-20T14:49:30;9.70;99.90
20459;DHT22;10388;52.314;7.938;2022-12-20T14:54:43;9.70;99.90
20459;DHT22;10388;52.314;7.938;2022-12-20T15:08:36;9.70;99.90
20459;DHT22;10388;52.314;7.938;2022-12-20T15:13:45;9.70;99.90
20459;DHT22;10388;52.314;7.938;2022-12-20T15:16:24;9.70;99.90
20459;DHT22;10388;52.314;7.938;2022-12-20T15:19:01;9.70;99.90
20459;DHT22;10388;52.314;7.938;2022-12-20T15:21:40;9.70;99.90
20459;DHT22;10388;52.314;7.938;2022-12-20T15:24:18;9.70;99.90
20459;DHT22;10388;52.314;7.938;2022-12-20T15:26:51;9.60;99.90
20459;DHT22;10388;52.314;7.938;2022-12-20T15:29:24;9.60;99.90
20459;DHT22;10388;52.314;7.938;2022-12-20T15:34:42;9.60;99.90
20459;DHT22;10388;52.314;7.938;2022-12-20T15:37:14;9.60;99.90
20459;DHT22;10388;52.314;7.938;2022-12-20T15:39:45;9.60;99.90
20459;DHT22;10388;52.314;7.938;2022-12-20T15:42:17;9.60;99.90
20459;DHT22;10388;52.314;7.938;2022-12-20T15:44:49;9.60;99.90
20459;DHT22;10388;52.314;7.938;2022-12-20T15:47:20;9.50;99.90
20459;DHT22;10388;52.314;7.938;2022-12-20T15:49:50;9.60;99.90
20459;DHT22;10388;52.314;7.938;2022-12-20T15:52:22;9.60;99.90
20459;DHT22;10388;52.314;7.938;2022-12-20T15:54:53;9.60;99.90
20459;DHT22;10388;52.314;7.938;2022-12-20T15:57:23;9.60;99.90
20459;DHT22;10388;52.314;7.938;2022-12-20T15:59:54;9.50;99.90
20459;DHT22;10388;52.314;7.938;2022-12-20T16:02:27;9.50;99.90
20459;DHT22;10388;52.314;7.938;2022-12-20T16:04:58;9.50;99.90
20459;DHT22;10388;52.314;7.938;2022-12-20T16:07:29;9.50;99.90
20459;DHT22;10388;52.314;7.938;2022-12-20T16:10:00;9.50;99.90
20459;DHT22;10388;52.314;7.938;2022-12-20T16:12:32;9.50;99.90
20459;DHT22;10388;52.314;7.938;2022-12-20T16:15:04;9.50;99.90
20459;DHT22;10388;52.314;7.938;2022-12-20T16:17:34;9.50;99.90
20459;DHT22;10388;52.314;7.938;2022-12-20T16:20:05;9.60;99.90
20459;DHT22;10388;52.314;7.938;2022-12-20T16:22:36;9.50;99.90
20459;DHT22;10388;52.314;7.938;2022-12-20T16:27:54;9.50;99.90
20459;DHT22;10388;52.314;7.938;2022-12-20T16:30:25;9.50;99.90
20459;DHT22;10388;52.314;7.938;2022-12-20T16:32:56;9.50;99.90
20459;DHT22;10388;52.314;7.938;2022-12-20T16:35:37;9.50;99.90
20459;DHT22;10388;52.314;7.938;2022-12-20T16:38:07;9.50;99.90
20459;DHT22;10388;52.314;7.938;2022-12-20T16:40:38;9.50;99.90
20459;DHT22;10388;52.314;7.938;2022-12-20T16:43:13;9.50;99.90
20459;DHT22;10388;52.314;7.938;2022-12-20T16:48:14;9.50;99.90
20459;DHT22;10388;52.314;7.938;2022-12-20T16:50:45;9.50;99.90
20459;DHT22;10388;52.314;7.938;2022-12-20T16:53:15;9.50;99.90
20459;DHT22;10388;52.314;7.938;2022-12-20T16:55:46;9.50;99.90
20459;DHT22;10388;52.314;7.938;2022-12-20T16:58:16;9.50;99.90
20459;DHT22;10388;52.314;7.938;2022-12-20T17:00:47;9.50;99.90
20459;DHT22;10388;52.314;7.938;2022-12-20T17:03:17;9.50;99.90
20459;DHT22;10388;52.314;7.938;2022-12-20T17:05:48;9.50;99.90
20459;DHT22;10388;52.314;7.938;2022-12-20T17:08:19;9.50;99.90
20459;DHT22;10388;52.314;7.938;2022-12-20T17:10:50;9.50;99.90
20459;DHT22;10388;52.314;7.938;2022-12-20T17:13:21;9.50;99.90
20459;DHT22;10388;52.314;7.938;2022-12-20T17:15:51;9.50;99.90
20459;DHT22;10388;52.314;7.938;2022-12-20T17:18:22;9.50;99.90
20459;DHT22;10388;52.314;7.938;2022-12-20T17:20:52;9.40;99.90
20459;DHT22;10388;52.314;7.938;2022-12-20T17:23:23;9.50;99.90
20459;DHT22;10388;52.314;7.938;2022-12-20T17:25:53;9.50;99.90
20459;DHT22;10388;52.314;7.938;2022-12-20T17:28:24;9.50;99.90
20459;DHT22;10388;52.314;7.938;2022-12-20T17:30:55;9.50;99.90
20459;DHT22;10388;52.314;7.938;2022-12-20T17:33:26;9.40;99.90
20459;DHT22;10388;52.314;7.938;2022-12-20T17:35:56;9.40;99.90
20459;DHT22;10388;52.314;7.938;2022-12-20T17:38:27;9.40;99.90
20459;DHT22;10388;52.314;7.938;2022-12-20T17:40:58;9.40;99.90
20459;DHT22;10388;52.314;7.938;2022-12-20T17:43:29;9.40;99.90
20459;DHT22;10388;52.314;7.938;2022-12-20T17:45:59;9.50;99.90
20459;DHT22;10388;52.314;7.938;2022-12-20T17:48:30;9.40;99.90
20459;DHT22;10388;52.314;7.938;2022-12-20T17:51:00;9.40;99.90
20459;DHT22;10388;52.314;7.938;2022-12-20T17:53:31;9.40;99.90
20459;DHT22;10388;52.314;7.938;2022-12-20T17:56:01;9.40;99.90
20459;DHT22;10388;52.314;7.938;2022-12-20T17:58:32;9.40;99.90
20459;DHT22;10388;52.314;7.938;2022-12-20T18:01:02;9.30;99.90
20459;DHT22;10388;52.314;7.938;2022-12-20T18:03:33;9.30;99.90
20459;DHT22;10388;52.314;7.938;2022-12-20T18:06:07;9.30;99.90
20459;DHT22;10388;52.314;7.938;2022-12-20T18:08:38;9.30;99.90
20459;DHT22;10388;52.314;7.938;2022-12-20T18:11:09;9.30;99.90
20459;DHT22;10388;52.314;7.938;2022-12-20T18:13:44;9.30;99.90
20459;DHT22;10388;52.314;7.938;2022-12-20T18:16:18;9.30;99.90
20459;DHT22;10388;52.314;7.938;2022-12-20T18:18:49;9.30;99.90
20459;DHT22;10388;52.314;7.938;2022-12-20T18:21:22;9.30;99.90
20459;DHT22;10388;52.314;7.938;2022-12-20T18:23:53;9.30;99.90
20459;DHT22;10388;52.314;7.938;2022-12-20T18:26:31;9.30;99.90
20459;DHT22;10388;52.314;7.938;2022-12-20T18:29:02;9.30;99.90
20459;DHT22;10388;52.314;7.938;2022-12-20T18:31:33;9.30;99.90
20459;DHT22;10388;52.314;7.938;2022-12-20T18:34:04;9.30;99.90
20459;DHT22;10388;52.314;7.938;2022-12-20T18:36:36;9.30;99.90
20459;DHT22;10388;52.314;7.938;2022-12-20T18:39:09;9.30;99.90
20459;DHT22;10388;52.314;7.938;2022-12-20T18:41:41;9.30;99.90
20459;DHT22;10388;52.314;7.938;2022-12-20T18:44:13;9.30;99.90
20459;DHT22;10388;52.314;7.938;2022-12-20T18:46:43;9.30;99.90
20459;DHT22;10388;52.314;7.938;2022-12-20T18:49:15;9.30;99.90
20459;DHT22;10388;52.314;7.938;2022-12-20T18:51:46;9.30;99.90
20459;DHT22;10388;52.314;7.938;2022-12-20T18:54:16;9.20;99.90
20459;DHT22;10388;52.314;7.938;2022-12-20T18:56:48;9.20;99.90
20459;DHT22;10388;52.314;7.938;2022-12-20T18:59:18;9.10;99.90
20459;DHT22;10388;52.314;7.938;2022-12-20T19:01:50;9.10;99.90
20459;DHT22;10388;52.314;7.938;2022-12-20T19:04:21;9.10;99.90
20459;DHT22;10388;52.314;7.938;2022-12-20T19:06:52;9.10;99.90
20459;DHT22;10388;52.314;7.938;2022-12-20T19:09:23;9.10;99.90
20459;DHT22;10388;52.314;7.938;2022-12-20T19:11:53;9.10;99.90
20459;DHT22;10388;52.314;7.938;2022-12-20T19:14:24;9.10;99.90
20459;DHT22;10388;52.314;7.938;2022-12-20T19:16:55;9.10;99.90
20459;DHT22;10388;52.314;7.938;2022-12-20T19:19:25;9.10;99.90
20459;DHT22;10388;52.314;7.938;2022-12-20T19:21:56;9.10;99.90
20459;DHT22;10388;52.314;7.938;2022-12-20T19:24:26;9.10;99.90
20459;DHT22;10388;52.314;7.938;2022-12-20T19:26:57;9.10;99.90
20459;DHT22;10388;52.314;7.938;2022-12-20T19:29:27;9.10;99.90
20459;DHT22;10388;52.314;7.938;2022-12-20T19:31:58;9.10;99.90
20459;DHT22;10388;52.314;7.938;2022-12-20T19:34:28;9.10;99.90
20459;DHT22;10388;52.314;7.938;2022-12-20T19:36:59;9.10;99.90
20459;DHT22;10388;52.314;7.938;2022-12-20T19:39:29;9.10;99.90
20459;DHT22;10388;52.314;7.938;2022-12-20T19:42:00;9.10;99.90
20459;DHT22;10388;52.314;7.938;2022-12-20T19:44:30;9.10;99.90
20459;DHT22;10388;52.314;7.938;2022-12-20T19:47:01;9.10;99.90